sensor_id;sensor_type;location;lat;lon;timestamp;temperature;humidity
7648;DHT22;3866;48.020;11.720;2022-08-03T00:01:40;17.90;99.90
7648;DHT22;3866;48.020;11.720;2022-08-03T00:04:08;17.80;99.90
7648;DHT22;3866;48.020;11.720;2022-08-03T00:06:36;17.70;99.90
7648;DHT22;3866;48.020;11.720;2022-08-03T00:09:03;17.60;99.90
7648;DHT22;3866;48.020;11.720;2022-08-03T00:11:31;17.50;99.90
7648;DHT22;3866;48.020;11.720;2022-08-03T00:13:58;17.40;99.90
7648;DHT22;3866;48.020;11.720;2022-08-03T00:16:24;17.40;99.90
7648;DHT22;3866;48.020;11.720;2022-08-03T00:18:53;17.20;99.90
7648;DHT22;3866;48.020;11.720;2022-08-03T00:21:20;17.10;99.90
7648;DHT22;3866;48.020;11.720;2022-08-03T00:23:47;17.00;99.90
7648;DHT22;3866;48.020;11.720;2022-08-03T00:26:13;17.00;99.90
7648;DHT22;3866;48.020;11.720;2022-08-03T00:28:40;17.00;99.90
7648;DHT22;3866;48.020;11.720;2022-08-03T00:31:07;17.00;99.90
7648;DHT22;3866;48.020;11.720;2022-08-03T00:33:34;16.90;99.90
7648;DHT22;3866;48.020;11.720;2022-08-03T00:36:03;16.90;99.90
7648;DHT22;3866;48.020;11.720;2022-08-03T00:38:30;16.90;99.90
7648;DHT22;3866;48.020;11.720;2022-08-03T00:40:57;16.90;99.90
7648;DHT22;3866;48.020;11.720;2022-08-03T00:43:24;16.80;99.90
7648;DHT22;3866;48.020;11.720;2022-08-03T00:45:52;16.80;99.90
7648;DHT22;3866;48.020;11.720;2022-08-03T00:48:20;16.80;99.90
7648;DHT22;3866;48.020;11.720;2022-08-03T00:50:47;16.70;99.90
7648;DHT22;3866;48.020;11.720;2022-08-03T00:53:15;16.70;99.90
7648;DHT22;3866;48.020;11.720;2022-08-03T00:55:43;16.80;99.90
7648;DHT22;3866;48.020;11.720;2022-08-03T00:58:10;16.70;99.90
7648;DHT22;3866;48.020;11.720;2022-08-03T01:00:38;16.60;99.90
7648;DHT22;3866;48.020;11.720;2022-08-03T01:03:06;16.50;99.90
7648;DHT22;3866;48.020;11.720;2022-08-03T01:05:39;16.50;99.90
7648;DHT22;3866;48.020;11.720;2022-08-03T01:08:17;16.50;99.90
7648;DHT22;3866;48.020;11.720;2022-08-03T01:10:52;16.50;99.90
7648;DHT22;3866;48.020;11.720;2022-08-03T01:13:25;16.50;99.90
7648;DHT22;3866;48.020;11.720;2022-08-03T01:15:59;16.50;99.90
7648;DHT22;3866;48.020;11.720;2022-08-03T01:18:31;16.60;99.90
7648;DHT22;3866;48.020;11.720;2022-08-03T01:21:06;16.60;99.90
7648;DHT22;3866;48.020;11.720;2022-08-03T01:23:47;16.70;99.90
7648;DHT22;3866;48.020;11.720;2022-08-03T01:26:41;16.70;99.90
7648;DHT22;3866;48.020;11.720;2022-08-03T01:32:09;16.70;99.90
7648;DHT22;3866;48.020;11.720;2022-08-03T01:34:42;16.70;99.90
7648;DHT22;3866;48.020;11.720;2022-08-03T01:37:11;16.60;99.90
7648;DHT22;3866;48.020;11.720;2022-08-03T01:39:42;16.50;99.90
7648;DHT22;3866;48.020;11.720;2022-08-03T01:42:11;16.50;99.90
7648;DHT22;3866;48.020;11.720;2022-08-03T01:44:40;16.50;99.90
7648;DHT22;3866;48.020;11.720;2022-08-03T01:47:09;16.40;99.90
7648;DHT22;3866;48.020;11.720;2022-08-03T01:49:39;16.40;99.90
7648;DHT22;3866;48.020;11.720;2022-08-03T01:52:10;16.40;99.90
7648;DHT22;3866;48.020;11.720;2022-08-03T01:54:41;16.40;99.90
7648;DHT22;3866;48.020;11.720;2022-08-03T01:57:09;16.40;99.90
7648;DHT22;3866;48.020;11.720;2022-08-03T01:59:37;16.40;99.90
7648;DHT22;3866;48.020;11.720;2022-08-03T02:02:06;16.30;99.90
7648;DHT22;3866;48.020;11.720;2022-08-03T02:04:36;16.30;99.90
7648;DHT22;3866;48.020;11.720;2022-08-03T02:07:05;16.30;99.90
7648;DHT22;3866;48.020;11.720;2022-08-03T02:09:33;16.20;99.90
7648;DHT22;3866;48.020;11.720;2022-08-03T02:12:05;16.20;99.90
7648;DHT22;3866;48.020;11.720;2022-08-03T02:14:33;16.20;99.90
7648;DHT22;3866;48.020;11.720;2022-08-03T02:17:00;16.20;99.90
7648;DHT22;3866;48.020;11.720;2022-08-03T02:19:29;16.10;99.90
7648;DHT22;3866;48.020;11.720;2022-08-03T02:21:59;16.10;99.90
7648;DHT22;3866;48.020;11.720;2022-08-03T02:24:26;16.00;99.90
7648;DHT22;3866;48.020;11.720;2022-08-03T02:26:54;16.00;99.90
7648;DHT22;3866;48.020;11.720;2022-08-03T02:29:24;15.90;99.90
7648;DHT22;3866;48.020;11.720;2022-08-03T02:31:54;15.90;99.90
7648;DHT22;3866;48.020;11.720;2022-08-03T02:34:25;15.80;99.90
7648;DHT22;3866;48.020;11.720;2022-08-03T02:36:57;15.90;99.90
7648;DHT22;3866;48.020;11.720;2022-08-03T02:39:27;15.90;99.90
7648;DHT22;3866;48.020;11.720;2022-08-03T02:41:58;15.90;99.90
7648;DHT22;3866;48.020;11.720;2022-08-03T02:44:30;15.80;99.90
7648;DHT22;3866;48.020;11.720;2022-08-03T02:47:01;15.80;99.90
7648;DHT22;3866;48.020;11.720;2022-08-03T02:49:29;15.70;99.90
7648;DHT22;3866;48.020;11.720;2022-08-03T02:51:59;15.70;99.90
7648;DHT22;3866;48.020;11.720;2022-08-03T02:54:27;15.70;99.90
7648;DHT22;3866;48.020;11.720;2022-08-03T02:56:56;15.70;99.90
7648;DHT22;3866;48.020;11.720;2022-08-03T02:59:24;15.60;99.90
7648;DHT22;3866;48.020;11.720;2022-08-03T03:01:52;15.60;99.90
7648;DHT22;3866;48.020;11.720;2022-08-03T03:04:20;15.60;99.90
7648;DHT22;3866;48.020;11.720;2022-08-03T03:06:49;15.60;99.90
7648;DHT22;3866;48.020;11.720;2022-08-03T03:09:17;15.70;99.90
7648;DHT22;3866;48.020;11.720;2022-08-03T03:11:45;15.60;99.90
7648;DHT22;3866;48.020;11.720;2022-08-03T03:14:15;15.60;99.90
7648;DHT22;3866;48.020;11.720;2022-08-03T03:16:43;15.50;99.90
7648;DHT22;3866;48.020;11.720;2022-08-03T03:19:12;15.50;99.90
7648;DHT22;3866;48.020;11.720;2022-08-03T03:21:39;15.50;99.90
7648;DHT22;3866;48.020;11.720;2022-08-03T03:24:08;15.50;99.90
7648;DHT22;3866;48.020;11.720;2022-08-03T03:26:37;15.40;99.90
7648;DHT22;3866;48.020;11.720;2022-08-03T03:29:06;15.50;99.90
7648;DHT22;3866;48.020;11.720;2022-08-03T03:31:34;15.40;99.90
7648;DHT22;3866;48.020;11.720;2022-08-03T03:34:01;15.30;99.90
7648;DHT22;3866;48.020;11.720;2022-08-03T03:36:29;15.30;99.90
7648;DHT22;3866;48.020;11.720;2022-08-03T03:38:56;15.20;99.90
7648;DHT22;3866;48.020;11.720;2022-08-03T03:41:23;15.40;99.90
7648;DHT22;3866;48.020;11.720;2022-08-03T03:43:52;15.50;99.90
7648;DHT22;3866;48.020;11.720;2022-08-03T03:46:19;15.60;99.90
7648;DHT22;3866;48.020;11.720;2022-08-03T03:48:46;15.70;99.90
7648;DHT22;3866;48.020;11.720;2022-08-03T03:51:14;15.70;99.90
7648;DHT22;3866;48.020;11.720;2022-08-03T03:53:53;15.70;99.90
7648;DHT22;3866;48.020;11.720;2022-08-03T03:56:20;15.60;99.90
7648;DHT22;3866;48.020;11.720;2022-08-03T03:58:47;15.60;99.90
7648;DHT22;3866;48.020;11.720;2022-08-03T04:01:16;15.40;99.90
7648;DHT22;3866;48.020;11.720;2022-08-03T04:03:43;15.30;99.90
7648;DHT22;3866;48.020;11.720;2022-08-03T04:06:11;15.10;99.90
7648;DHT22;3866;48.020;11.720;2022-08-03T04:08:56;14.90;99.90
7648;DHT22;3866;48.020;11.720;2022-08-03T04:11:42;14.80;99.90
7648;DHT22;3866;48.020;11.720;2022-08-03T04:14:13;14.70;99.90
7648;DHT22;3866;48.020;11.720;2022-08-03T04:16:46;14.70;99.90
7648;DHT22;3866;48.020;11.720;2022-08-03T04:19:17;14.80;99.90
7648;DHT22;3866;48.020;11.720;2022-08-03T04:21:47;14.80;99.90
7648;DHT22;3866;48.020;11.720;2022-08-03T04:24:17;14.90;99.90
7648;DHT22;3866;48.020;11.720;2022-08-03T04:26:46;14.90;99.90
7648;DHT22;3866;48.020;11.720;2022-08-03T04:29:15;15.00;99.90
7648;DHT22;3866;48.020;11.720;2022-08-03T04:31:45;15.10;99.90
7648;DHT22;3866;48.020;11.720;2022-08-03T04:34:12;15.20;99.90
7648;DHT22;3866;48.020;11.720;2022-08-03T04:36:46;15.20;99.90
7648;DHT22;3866;48.020;11.720;2022-08-03T04:39:18;15.40;99.90
7648;DHT22;3866;48.020;11.720;2022-08-03T04:41:51;15.40;99.90
7648;DHT22;3866;48.020;11.720;2022-08-03T04:44:19;15.40;99.90
7648;DHT22;3866;48.020;11.720;2022-08-03T04:46:48;15.50;99.90
7648;DHT22;3866;48.020;11.720;2022-08-03T04:49:15;15.50;99.90
7648;DHT22;3866;48.020;11.720;2022-08-03T04:51:42;15.60;99.90
7648;DHT22;3866;48.020;11.720;2022-08-03T04:54:11;15.60;99.90
7648;DHT22;3866;48.020;11.720;2022-08-03T04:56:39;15.70;99.90
7648;DHT22;3866;48.020;11.720;2022-08-03T04:59:06;15.80;99.90
7648;DHT22;3866;48.020;11.720;2022-08-03T05:01:33;15.80;99.90
7648;DHT22;3866;48.020;11.720;2022-08-03T05:04:01;15.90;99.90
7648;DHT22;3866;48.020;11.720;2022-08-03T05:06:28;16.00;99.90
7648;DHT22;3866;48.020;11.720;2022-08-03T05:08:55;16.10;99.90
7648;DHT22;3866;48.020;11.720;2022-08-03T05:11:22;16.20;99.90
7648;DHT22;3866;48.020;11.720;2022-08-03T05:13:49;16.20;99.90
7648;DHT22;3866;48.020;11.720;2022-08-03T05:16:16;16.40;99.90
7648;DHT22;3866;48.020;11.720;2022-08-03T05:18:43;16.70;99.90
7648;DHT22;3866;48.020;11.720;2022-08-03T05:21:12;17.00;99.90
7648;DHT22;3866;48.020;11.720;2022-08-03T05:23:41;17.10;99.90
7648;DHT22;3866;48.020;11.720;2022-08-03T05:26:08;17.00;99.90
7648;DHT22;3866;48.020;11.720;2022-08-03T05:28:36;17.10;99.90
7648;DHT22;3866;48.020;11.720;2022-08-03T05:31:03;17.30;99.90
7648;DHT22;3866;48.020;11.720;2022-08-03T05:33:30;17.50;99.90
7648;DHT22;3866;48.020;11.720;2022-08-03T05:35:57;17.60;99.90
7648;DHT22;3866;48.020;11.720;2022-08-03T05:38:25;17.60;99.90
7648;DHT22;3866;48.020;11.720;2022-08-03T05:40:52;17.70;99.90
7648;DHT22;3866;48.020;11.720;2022-08-03T05:43:19;17.80;99.90
7648;DHT22;3866;48.020;11.720;2022-08-03T05:45:47;18.10;99.90
7648;DHT22;3866;48.020;11.720;2022-08-03T05:48:14;18.30;99.90
7648;DHT22;3866;48.020;11.720;2022-08-03T05:50:41;18.70;99.90
7648;DHT22;3866;48.020;11.720;2022-08-03T05:53:08;18.90;99.90
7648;DHT22;3866;48.020;11.720;2022-08-03T05:55:36;19.20;99.90
7648;DHT22;3866;48.020;11.720;2022-08-03T05:58:03;19.50;99.90
7648;DHT22;3866;48.020;11.720;2022-08-03T06:00:30;19.70;99.90
7648;DHT22;3866;48.020;11.720;2022-08-03T06:02:57;19.80;99.90
7648;DHT22;3866;48.020;11.720;2022-08-03T06:05:24;19.80;99.90
7648;DHT22;3866;48.020;11.720;2022-08-03T06:07:52;19.70;99.90
7648;DHT22;3866;48.020;11.720;2022-08-03T06:10:19;19.70;99.90
7648;DHT22;3866;48.020;11.720;2022-08-03T06:12:48;19.80;99.90
7648;DHT22;3866;48.020;11.720;2022-08-03T06:15:16;20.10;99.90
7648;DHT22;3866;48.020;11.720;2022-08-03T06:17:45;20.40;99.90
7648;DHT22;3866;48.020;11.720;2022-08-03T06:20:12;20.60;99.90
7648;DHT22;3866;48.020;11.720;2022-08-03T06:22:39;20.50;99.90
7648;DHT22;3866;48.020;11.720;2022-08-03T06:25:06;20.50;99.90
7648;DHT22;3866;48.020;11.720;2022-08-03T06:27:33;20.40;99.90
7648;DHT22;3866;48.020;11.720;2022-08-03T06:30:05;20.40;99.90
7648;DHT22;3866;48.020;11.720;2022-08-03T06:32:32;20.60;99.90
7648;DHT22;3866;48.020;11.720;2022-08-03T06:34:59;20.70;99.90
7648;DHT22;3866;48.020;11.720;2022-08-03T06:37:26;20.70;99.90
7648;DHT22;3866;48.020;11.720;2022-08-03T06:39:53;20.80;99.90
7648;DHT22;3866;48.020;11.720;2022-08-03T06:42:21;21.00;99.90
7648;DHT22;3866;48.020;11.720;2022-08-03T06:44:47;21.40;99.90
7648;DHT22;3866;48.020;11.720;2022-08-03T06:47:17;21.50;99.90
7648;DHT22;3866;48.020;11.720;2022-08-03T06:49:44;21.80;99.90
7648;DHT22;3866;48.020;11.720;2022-08-03T06:52:10;21.90;99.90
7648;DHT22;3866;48.020;11.720;2022-08-03T06:54:37;21.90;99.90
7648;DHT22;3866;48.020;11.720;2022-08-03T06:57:04;22.20;99.90
7648;DHT22;3866;48.020;11.720;2022-08-03T06:59:32;22.10;99.90
7648;DHT22;3866;48.020;11.720;2022-08-03T07:01:59;22.50;99.90
7648;DHT22;3866;48.020;11.720;2022-08-03T07:04:27;23.10;99.90
7648;DHT22;3866;48.020;11.720;2022-08-03T07:06:54;24.00;99.90
7648;DHT22;3866;48.020;11.720;2022-08-03T07:09:21;24.20;99.90
7648;DHT22;3866;48.020;11.720;2022-08-03T07:11:48;24.70;99.90
7648;DHT22;3866;48.020;11.720;2022-08-03T07:14:15;25.40;99.90
7648;DHT22;3866;48.020;11.720;2022-08-03T07:16:42;25.60;99.90
7648;DHT22;3866;48.020;11.720;2022-08-03T07:19:09;27.40;99.90
7648;DHT22;3866;48.020;11.720;2022-08-03T07:21:38;29.80;99.90
7648;DHT22;3866;48.020;11.720;2022-08-03T07:24:05;30.30;99.90
7648;DHT22;3866;48.020;11.720;2022-08-03T07:26:32;31.90;99.90
7648;DHT22;3866;48.020;11.720;2022-08-03T07:28:59;31.80;99.90
7648;DHT22;3866;48.020;11.720;2022-08-03T07:31:26;31.50;99.90
7648;DHT22;3866;48.020;11.720;2022-08-03T07:33:53;31.90;99.90
7648;DHT22;3866;48.020;11.720;2022-08-03T07:36:20;32.40;99.90
7648;DHT22;3866;48.020;11.720;2022-08-03T07:38:48;33.10;99.90
7648;DHT22;3866;48.020;11.720;2022-08-03T07:41:15;33.90;99.90
7648;DHT22;3866;48.020;11.720;2022-08-03T07:43:42;34.00;99.90
7648;DHT22;3866;48.020;11.720;2022-08-03T07:46:09;34.90;99.90
7648;DHT22;3866;48.020;11.720;2022-08-03T07:48:36;34.50;99.90
7648;DHT22;3866;48.020;11.720;2022-08-03T07:51:03;34.70;99.90
7648;DHT22;3866;48.020;11.720;2022-08-03T07:53:30;33.70;99.90
7648;DHT22;3866;48.020;11.720;2022-08-03T07:55:58;33.20;99.90
7648;DHT22;3866;48.020;11.720;2022-08-03T07:58:25;33.10;99.90
7648;DHT22;3866;48.020;11.720;2022-08-03T08:00:52;33.20;99.90
7648;DHT22;3866;48.020;11.720;2022-08-03T08:03:19;32.90;99.90
7648;DHT22;3866;48.020;11.720;2022-08-03T08:05:46;32.00;99.90
7648;DHT22;3866;48.020;11.720;2022-08-03T08:08:13;32.30;99.90
7648;DHT22;3866;48.020;11.720;2022-08-03T08:10:40;32.60;99.90
7648;DHT22;3866;48.020;11.720;2022-08-03T08:13:08;32.30;99.90
7648;DHT22;3866;48.020;11.720;2022-08-03T08:15:35;31.70;99.90
7648;DHT22;3866;48.020;11.720;2022-08-03T08:18:02;30.90;99.90
7648;DHT22;3866;48.020;11.720;2022-08-03T08:20:32;31.60;99.90
7648;DHT22;3866;48.020;11.720;2022-08-03T08:23:00;32.60;99.90
7648;DHT22;3866;48.020;11.720;2022-08-03T08:25:28;32.40;99.90
7648;DHT22;3866;48.020;11.720;2022-08-03T08:27:55;31.80;99.90
7648;DHT22;3866;48.020;11.720;2022-08-03T08:30:24;32.50;99.90
7648;DHT22;3866;48.020;11.720;2022-08-03T08:32:50;32.60;99.90
7648;DHT22;3866;48.020;11.720;2022-08-03T08:35:18;32.70;99.90
7648;DHT22;3866;48.020;11.720;2022-08-03T08:37:45;32.40;99.90
7648;DHT22;3866;48.020;11.720;2022-08-03T08:40:12;31.80;99.90
7648;DHT22;3866;48.020;11.720;2022-08-03T08:42:40;31.70;99.90
7648;DHT22;3866;48.020;11.720;2022-08-03T08:45:08;32.20;99.90
7648;DHT22;3866;48.020;11.720;2022-08-03T08:47:39;32.10;99.90
7648;DHT22;3866;48.020;11.720;2022-08-03T08:50:09;31.90;99.90
7648;DHT22;3866;48.020;11.720;2022-08-03T08:52:39;31.60;99.90
7648;DHT22;3866;48.020;11.720;2022-08-03T08:55:08;30.80;99.90
7648;DHT22;3866;48.020;11.720;2022-08-03T08:57:36;29.70;99.90
7648;DHT22;3866;48.020;11.720;2022-08-03T09:00:05;29.40;99.90
7648;DHT22;3866;48.020;11.720;2022-08-03T09:02:33;29.40;99.90
7648;DHT22;3866;48.020;11.720;2022-08-03T09:05:02;29.20;99.90
7648;DHT22;3866;48.020;11.720;2022-08-03T09:07:30;29.30;99.90
7648;DHT22;3866;48.020;11.720;2022-08-03T09:09:56;28.50;99.90
7648;DHT22;3866;48.020;11.720;2022-08-03T09:12:23;28.20;99.90
7648;DHT22;3866;48.020;11.720;2022-08-03T09:14:50;27.90;99.90
7648;DHT22;3866;48.020;11.720;2022-08-03T09:17:17;27.70;99.90
7648;DHT22;3866;48.020;11.720;2022-08-03T09:20:05;27.60;99.90
7648;DHT22;3866;48.020;11.720;2022-08-03T09:22:33;26.80;99.90
7648;DHT22;3866;48.020;11.720;2022-08-03T09:25:03;26.70;99.90
7648;DHT22;3866;48.020;11.720;2022-08-03T09:27:41;26.80;99.90
7648;DHT22;3866;48.020;11.720;2022-08-03T09:30:12;26.90;99.90
7648;DHT22;3866;48.020;11.720;2022-08-03T09:32:40;27.10;99.90
7648;DHT22;3866;48.020;11.720;2022-08-03T09:35:09;27.30;99.90
7648;DHT22;3866;48.020;11.720;2022-08-03T09:37:36;27.60;99.90
7648;DHT22;3866;48.020;11.720;2022-08-03T09:40:05;27.70;99.90
7648;DHT22;3866;48.020;11.720;2022-08-03T09:42:32;27.60;99.90
7648;DHT22;3866;48.020;11.720;2022-08-03T09:45:03;27.50;99.90
7648;DHT22;3866;48.020;11.720;2022-08-03T09:47:32;27.20;99.90
7648;DHT22;3866;48.020;11.720;2022-08-03T09:50:02;27.00;99.90
7648;DHT22;3866;48.020;11.720;2022-08-03T09:52:32;26.90;99.90
7648;DHT22;3866;48.020;11.720;2022-08-03T09:54:59;26.80;99.90
7648;DHT22;3866;48.020;11.720;2022-08-03T09:57:27;26.80;99.90
7648;DHT22;3866;48.020;11.720;2022-08-03T10:00:05;27.10;99.90
7648;DHT22;3866;48.020;11.720;2022-08-03T10:02:35;27.20;99.90
7648;DHT22;3866;48.020;11.720;2022-08-03T10:05:02;27.30;99.90
7648;DHT22;3866;48.020;11.720;2022-08-03T10:07:41;27.20;99.90
7648;DHT22;3866;48.020;11.720;2022-08-03T10:10:08;27.10;99.90
7648;DHT22;3866;48.020;11.720;2022-08-03T10:12:36;27.30;99.90
7648;DHT22;3866;48.020;11.720;2022-08-03T10:15:04;27.30;99.90
7648;DHT22;3866;48.020;11.720;2022-08-03T10:17:31;27.30;99.90
7648;DHT22;3866;48.020;11.720;2022-08-03T10:19:58;27.40;99.90
7648;DHT22;3866;48.020;11.720;2022-08-03T10:22:26;27.60;99.90
7648;DHT22;3866;48.020;11.720;2022-08-03T10:24:58;27.70;99.90
7648;DHT22;3866;48.020;11.720;2022-08-03T10:27:34;27.50;99.90
7648;DHT22;3866;48.020;11.720;2022-08-03T10:30:04;27.50;99.90
7648;DHT22;3866;48.020;11.720;2022-08-03T10:32:36;27.40;99.90
7648;DHT22;3866;48.020;11.720;2022-08-03T10:35:06;27.40;99.90
7648;DHT22;3866;48.020;11.720;2022-08-03T10:37:39;27.30;99.90
7648;DHT22;3866;48.020;11.720;2022-08-03T10:40:11;27.50;99.90
7648;DHT22;3866;48.020;11.720;2022-08-03T10:42:40;27.60;99.90
7648;DHT22;3866;48.020;11.720;2022-08-03T10:45:14;27.70;99.90
7648;DHT22;3866;48.020;11.720;2022-08-03T10:47:41;27.80;99.90
7648;DHT22;3866;48.020;11.720;2022-08-03T10:50:08;27.80;99.90
7648;DHT22;3866;48.020;11.720;2022-08-03T10:52:53;27.70;99.90
7648;DHT22;3866;48.020;11.720;2022-08-03T10:55:30;27.80;99.90
7648;DHT22;3866;48.020;11.720;2022-08-03T10:58:20;27.70;99.90
7648;DHT22;3866;48.020;11.720;2022-08-03T11:01:09;27.60;99.90
7648;DHT22;3866;48.020;11.720;2022-08-03T11:04:13;27.60;99.90
7648;DHT22;3866;48.020;11.720;2022-08-03T11:06:40;27.80;99.90
7648;DHT22;3866;48.020;11.720;2022-08-03T11:09:15;27.70;99.90
7648;DHT22;3866;48.020;11.720;2022-08-03T11:11:45;28.10;99.90
7648;DHT22;3866;48.020;11.720;2022-08-03T11:14:15;27.90;99.90
7648;DHT22;3866;48.020;11.720;2022-08-03T11:16:45;27.70;99.90
7648;DHT22;3866;48.020;11.720;2022-08-03T11:19:13;27.70;99.90
7648;DHT22;3866;48.020;11.720;2022-08-03T11:22:04;27.80;99.90
7648;DHT22;3866;48.020;11.720;2022-08-03T11:24:59;28.10;99.90
7648;DHT22;3866;48.020;11.720;2022-08-03T11:27:29;28.30;99.90
7648;DHT22;3866;48.020;11.720;2022-08-03T11:29:59;28.40;99.90
7648;DHT22;3866;48.020;11.720;2022-08-03T11:35:33;28.30;99.90
7648;DHT22;3866;48.020;11.720;2022-08-03T11:38:05;28.30;99.90
7648;DHT22;3866;48.020;11.720;2022-08-03T11:40:34;28.40;99.90
7648;DHT22;3866;48.020;11.720;2022-08-03T11:43:04;28.90;99.90
7648;DHT22;3866;48.020;11.720;2022-08-03T11:45:33;29.20;99.90
7648;DHT22;3866;48.020;11.720;2022-08-03T11:48:11;29.10;99.90
7648;DHT22;3866;48.020;11.720;2022-08-03T11:50:39;29.40;99.90
7648;DHT22;3866;48.020;11.720;2022-08-03T11:53:07;29.50;99.90
7648;DHT22;3866;48.020;11.720;2022-08-03T11:55:39;29.50;99.90
7648;DHT22;3866;48.020;11.720;2022-08-03T11:58:16;29.50;99.90
7648;DHT22;3866;48.020;11.720;2022-08-03T12:00:43;29.60;99.90
7648;DHT22;3866;48.020;11.720;2022-08-03T12:03:12;29.70;99.90
7648;DHT22;3866;48.020;11.720;2022-08-03T12:05:43;29.90;99.90
7648;DHT22;3866;48.020;11.720;2022-08-03T12:08:12;30.00;99.30
7648;DHT22;3866;48.020;11.720;2022-08-03T12:10:44;30.10;99.90
7648;DHT22;3866;48.020;11.720;2022-08-03T12:13:11;30.40;99.40
7648;DHT22;3866;48.020;11.720;2022-08-03T12:15:40;31.00;99.50
7648;DHT22;3866;48.020;11.720;2022-08-03T12:18:15;32.10;99.50
7648;DHT22;3866;48.020;11.720;2022-08-03T12:20:43;31.80;99.90
7648;DHT22;3866;48.020;11.720;2022-08-03T12:23:11;32.60;99.10
7648;DHT22;3866;48.020;11.720;2022-08-03T12:25:40;32.60;98.10
7648;DHT22;3866;48.020;11.720;2022-08-03T12:28:11;32.60;99.30
7648;DHT22;3866;48.020;11.720;2022-08-03T12:30:43;34.00;97.30
7648;DHT22;3866;48.020;11.720;2022-08-03T12:33:18;34.20;96.60
7648;DHT22;3866;48.020;11.720;2022-08-03T12:35:50;34.20;96.40
7648;DHT22;3866;48.020;11.720;2022-08-03T12:38:26;34.60;95.90
7648;DHT22;3866;48.020;11.720;2022-08-03T12:40:58;33.80;95.60
7648;DHT22;3866;48.020;11.720;2022-08-03T12:43:25;33.70;95.50
7648;DHT22;3866;48.020;11.720;2022-08-03T12:46:08;34.60;94.20
7648;DHT22;3866;48.020;11.720;2022-08-03T12:48:35;34.20;95.00
7648;DHT22;3866;48.020;11.720;2022-08-03T12:51:08;35.10;93.50
7648;DHT22;3866;48.020;11.720;2022-08-03T12:53:35;35.30;93.40
7648;DHT22;3866;48.020;11.720;2022-08-03T12:56:04;35.50;94.10
7648;DHT22;3866;48.020;11.720;2022-08-03T12:58:33;35.80;92.60
7648;DHT22;3866;48.020;11.720;2022-08-03T13:01:00;36.10;93.40
7648;DHT22;3866;48.020;11.720;2022-08-03T13:03:38;37.30;91.40
7648;DHT22;3866;48.020;11.720;2022-08-03T13:06:10;35.90;91.70
7648;DHT22;3866;48.020;11.720;2022-08-03T13:08:38;36.90;90.80
7648;DHT22;3866;48.020;11.720;2022-08-03T13:11:18;35.70;91.30
7648;DHT22;3866;48.020;11.720;2022-08-03T13:13:46;36.20;90.80
7648;DHT22;3866;48.020;11.720;2022-08-03T13:16:12;36.20;90.10
7648;DHT22;3866;48.020;11.720;2022-08-03T13:18:41;35.90;90.70
7648;DHT22;3866;48.020;11.720;2022-08-03T13:21:08;35.10;92.80
7648;DHT22;3866;48.020;11.720;2022-08-03T13:23:34;35.20;90.30
7648;DHT22;3866;48.020;11.720;2022-08-03T13:26:01;34.70;90.70
7648;DHT22;3866;48.020;11.720;2022-08-03T13:28:28;33.80;90.40
7648;DHT22;3866;48.020;11.720;2022-08-03T13:30:55;33.50;90.90
7648;DHT22;3866;48.020;11.720;2022-08-03T13:33:22;33.50;91.50
7648;DHT22;3866;48.020;11.720;2022-08-03T13:35:51;32.50;92.40
7648;DHT22;3866;48.020;11.720;2022-08-03T13:38:17;32.50;92.70
7648;DHT22;3866;48.020;11.720;2022-08-03T13:40:44;32.80;92.30
7648;DHT22;3866;48.020;11.720;2022-08-03T13:43:11;32.80;91.70
7648;DHT22;3866;48.020;11.720;2022-08-03T13:45:38;33.20;92.60
7648;DHT22;3866;48.020;11.720;2022-08-03T13:48:05;33.40;91.10
7648;DHT22;3866;48.020;11.720;2022-08-03T13:50:32;33.50;91.30
7648;DHT22;3866;48.020;11.720;2022-08-03T13:53:00;32.50;92.50
7648;DHT22;3866;48.020;11.720;2022-08-03T13:55:27;32.90;93.20
7648;DHT22;3866;48.020;11.720;2022-08-03T13:57:54;33.20;90.90
7648;DHT22;3866;48.020;11.720;2022-08-03T14:00:21;32.80;90.50
7648;DHT22;3866;48.020;11.720;2022-08-03T14:02:50;32.50;92.40
7648;DHT22;3866;48.020;11.720;2022-08-03T14:05:17;32.30;93.70
7648;DHT22;3866;48.020;11.720;2022-08-03T14:07:44;32.60;91.10
7648;DHT22;3866;48.020;11.720;2022-08-03T14:10:15;32.60;91.00
7648;DHT22;3866;48.020;11.720;2022-08-03T14:12:42;32.50;90.60
7648;DHT22;3866;48.020;11.720;2022-08-03T14:15:09;32.50;90.40
7648;DHT22;3866;48.020;11.720;2022-08-03T14:17:37;32.40;91.80
7648;DHT22;3866;48.020;11.720;2022-08-03T14:20:06;32.20;91.50
7648;DHT22;3866;48.020;11.720;2022-08-03T14:22:33;31.90;91.90
7648;DHT22;3866;48.020;11.720;2022-08-03T14:24:59;31.80;91.80
7648;DHT22;3866;48.020;11.720;2022-08-03T14:27:28;31.90;91.90
7648;DHT22;3866;48.020;11.720;2022-08-03T14:29:55;32.00;91.80
7648;DHT22;3866;48.020;11.720;2022-08-03T14:32:24;31.90;92.70
7648;DHT22;3866;48.020;11.720;2022-08-03T14:34:52;31.90;92.50
7648;DHT22;3866;48.020;11.720;2022-08-03T14:37:19;31.90;92.00
7648;DHT22;3866;48.020;11.720;2022-08-03T14:39:46;31.90;92.40
7648;DHT22;3866;48.020;11.720;2022-08-03T14:42:13;31.70;92.00
7648;DHT22;3866;48.020;11.720;2022-08-03T14:44:42;31.70;91.10
7648;DHT22;3866;48.020;11.720;2022-08-03T14:47:09;31.70;90.90
7648;DHT22;3866;48.020;11.720;2022-08-03T14:49:36;32.00;90.90
7648;DHT22;3866;48.020;11.720;2022-08-03T14:52:04;32.10;91.60
7648;DHT22;3866;48.020;11.720;2022-08-03T14:54:31;32.10;91.20
7648;DHT22;3866;48.020;11.720;2022-08-03T14:56:58;31.90;91.20
7648;DHT22;3866;48.020;11.720;2022-08-03T14:59:25;31.80;93.00
7648;DHT22;3866;48.020;11.720;2022-08-03T15:01:54;32.10;91.10
7648;DHT22;3866;48.020;11.720;2022-08-03T15:04:21;32.10;92.70
7648;DHT22;3866;48.020;11.720;2022-08-03T15:06:47;32.10;93.80
7648;DHT22;3866;48.020;11.720;2022-08-03T15:09:14;32.10;92.60
7648;DHT22;3866;48.020;11.720;2022-08-03T15:11:41;32.10;93.10
7648;DHT22;3866;48.020;11.720;2022-08-03T15:14:08;32.30;92.10
7648;DHT22;3866;48.020;11.720;2022-08-03T15:16:35;32.20;92.70
7648;DHT22;3866;48.020;11.720;2022-08-03T15:19:04;32.00;93.30
7648;DHT22;3866;48.020;11.720;2022-08-03T15:21:31;32.00;94.00
7648;DHT22;3866;48.020;11.720;2022-08-03T15:23:58;32.00;93.70
7648;DHT22;3866;48.020;11.720;2022-08-03T15:26:25;31.80;93.60
7648;DHT22;3866;48.020;11.720;2022-08-03T15:28:51;31.60;93.00
7648;DHT22;3866;48.020;11.720;2022-08-03T15:31:20;31.40;93.50
7648;DHT22;3866;48.020;11.720;2022-08-03T15:33:47;31.30;93.00
7648;DHT22;3866;48.020;11.720;2022-08-03T15:36:17;31.40;93.00
7648;DHT22;3866;48.020;11.720;2022-08-03T15:38:44;31.60;92.80
7648;DHT22;3866;48.020;11.720;2022-08-03T15:41:11;31.50;93.40
7648;DHT22;3866;48.020;11.720;2022-08-03T15:43:38;31.40;93.30
7648;DHT22;3866;48.020;11.720;2022-08-03T15:46:05;31.10;93.30
7648;DHT22;3866;48.020;11.720;2022-08-03T15:48:32;31.00;93.40
7648;DHT22;3866;48.020;11.720;2022-08-03T15:50:59;30.90;94.00
7648;DHT22;3866;48.020;11.720;2022-08-03T15:53:27;31.00;93.80
7648;DHT22;3866;48.020;11.720;2022-08-03T15:55:54;30.90;93.80
7648;DHT22;3866;48.020;11.720;2022-08-03T15:58:21;30.90;93.60
7648;DHT22;3866;48.020;11.720;2022-08-03T16:00:48;31.10;92.70
7648;DHT22;3866;48.020;11.720;2022-08-03T16:03:15;31.10;92.90